sensor_id;sensor_type;location;lat;lon;timestamp;pressure;altitude;pressure_sealevel;temperature;humidity
18527;BME280;9393;42.158;24.748;2023-07-29T00:01:33;99267.66;;;25.06;36.92
18527;BME280;9393;42.158;24.748;2023-07-29T00:04:37;99265.50;;;25.37;36.30
18527;BME280;9393;42.158;24.748;2023-07-29T00:07:42;99266.13;;;25.10;37.52
18527;BME280;9393;42.158;24.748;2023-07-29T00:10:46;99258.53;;;25.36;37.26
18527;BME280;9393;42.158;24.748;2023-07-29T00:13:50;99256.66;;;24.86;38.23
18527;BME280;9393;42.158;24.748;2023-07-29T00:16:55;99252.25;;;25.08;37.70
18527;BME280;9393;42.158;24.748;2023-07-29T00:19:58;99258.03;;;25.39;37.03
18527;BME280;9393;42.158;24.748;2023-07-29T00:23:03;99255.31;;;25.17;38.12
18527;BME280;9393;42.158;24.748;2023-07-29T00:26:07;99260.00;;;25.43;37.74
18527;BME280;9393;42.158;24.748;2023-07-29T00:29:11;99264.22;;;24.78;38.56
18527;BME280;9393;42.158;24.748;2023-07-29T00:32:15;99268.25;;;25.08;38.07
18527;BME280;9393;42.158;24.748;2023-07-29T00:35:19;99266.00;;;25.34;37.17
18527;BME280;9393;42.158;24.748;2023-07-29T00:38:24;99272.16;;;25.51;37.32
18527;BME280;9393;42.158;24.748;2023-07-29T00:41:29;99269.03;;;25.42;38.10
18527;BME280;9393;42.158;24.748;2023-07-29T00:44:33;99269.22;;;25.36;38.58
18527;BME280;9393;42.158;24.748;2023-07-29T00:47:37;99267.59;;;25.35;38.54
18527;BME280;9393;42.158;24.748;2023-07-29T00:50:42;99265.69;;;25.30;39.26
18527;BME280;9393;42.158;24.748;2023-07-29T00:53:47;99264.28;;;25.28;39.58
18527;BME280;9393;42.158;24.748;2023-07-29T00:56:51;99267.59;;;25.01;40.00
18527;BME280;9393;42.158;24.748;2023-07-29T00:59:54;99265.28;;;24.77;40.58
18527;BME280;9393;42.158;24.748;2023-07-29T01:02:59;99256.78;;;24.80;40.27
18527;BME280;9393;42.158;24.748;2023-07-29T01:06:09;99258.63;;;24.79;40.33
18527;BME280;9393;42.158;24.748;2023-07-29T01:09:21;99259.88;;;24.72;40.73
18527;BME280;9393;42.158;24.748;2023-07-29T01:12:36;99261.59;;;24.94;40.15
18527;BME280;9393;42.158;24.748;2023-07-29T01:15:45;99257.31;;;24.93;39.96
18527;BME280;9393;42.158;24.748;2023-07-29T01:18:54;99255.75;;;24.81;39.91
18527;BME280;9393;42.158;24.748;2023-07-29T01:21:59;99258.53;;;24.57;40.30
18527;BME280;9393;42.158;24.748;2023-07-29T01:25:06;99258.69;;;24.51;40.92
18527;BME280;9393;42.158;24.748;2023-07-29T01:28:10;99264.69;;;24.58;40.44
18527;BME280;9393;42.158;24.748;2023-07-29T01:31:23;99259.28;;;24.41;41.09
18527;BME280;9393;42.158;24.748;2023-07-29T01:34:35;99258.94;;;24.38;40.89
18527;BME280;9393;42.158;24.748;2023-07-29T01:37:44;99261.69;;;24.54;40.69
18527;BME280;9393;42.158;24.748;2023-07-29T01:40:54;99258.88;;;24.61;40.61
18527;BME280;9393;42.158;24.748;2023-07-29T01:43:59;99266.91;;;24.49;41.39
18527;BME280;9393;42.158;24.748;2023-07-29T01:47:05;99269.34;;;24.51;41.36
18527;BME280;9393;42.158;24.748;2023-07-29T01:50:10;99271.25;;;24.67;41.24
18527;BME280;9393;42.158;24.748;2023-07-29T01:53:13;99264.91;;;24.56;41.14
18527;BME280;9393;42.158;24.748;2023-07-29T01:56:19;99277.91;;;24.53;41.62
18527;BME280;9393;42.158;24.748;2023-07-29T01:59:29;99276.72;;;24.60;41.38
18527;BME280;9393;42.158;24.748;2023-07-29T02:02:32;99282.00;;;24.44;41.90
18527;BME280;9393;42.158;24.748;2023-07-29T02:05:36;99281.25;;;24.60;41.45
18527;BME280;9393;42.158;24.748;2023-07-29T02:08:40;99277.63;;;24.66;41.56
18527;BME280;9393;42.158;24.748;2023-07-29T02:11:45;99288.06;;;24.68;41.35
18527;BME280;9393;42.158;24.748;2023-07-29T02:14:49;99289.78;;;24.62;41.48
18527;BME280;9393;42.158;24.748;2023-07-29T02:17:53;99298.34;;;24.47;41.54
18527;BME280;9393;42.158;24.748;2023-07-29T02:20:57;99293.94;;;24.41;41.82
18527;BME280;9393;42.158;24.748;2023-07-29T02:24:01;99295.91;;;24.34;42.46
18527;BME280;9393;42.158;24.748;2023-07-29T02:27:06;99286.81;;;24.30;42.43
18527;BME280;9393;42.158;24.748;2023-07-29T02:30:11;99278.00;;;24.30;42.39
18527;BME280;9393;42.158;24.748;2023-07-29T02:33:14;99286.88;;;24.47;41.90
18527;BME280;9393;42.158;24.748;2023-07-29T02:36:19;99290.09;;;23.97;43.33
18527;BME280;9393;42.158;24.748;2023-07-29T02:39:23;99281.06;;;23.87;44.48
18527;BME280;9393;42.158;24.748;2023-07-29T02:42:28;99289.53;;;23.60;45.04
18527;BME280;9393;42.158;24.748;2023-07-29T02:45:31;99295.91;;;23.71;44.64
18527;BME280;9393;42.158;24.748;2023-07-29T02:48:35;99290.56;;;23.48;45.53
18527;BME280;9393;42.158;24.748;2023-07-29T02:51:39;99293.72;;;23.68;44.63
18527;BME280;9393;42.158;24.748;2023-07-29T02:54:42;99305.28;;;23.74;44.70
18527;BME280;9393;42.158;24.748;2023-07-29T02:57:48;99294.63;;;23.85;44.65
18527;BME280;9393;42.158;24.748;2023-07-29T03:00:51;99296.81;;;23.77;44.46
18527;BME280;9393;42.158;24.748;2023-07-29T03:03:55;99294.19;;;23.65;44.86
18527;BME280;9393;42.158;24.748;2023-07-29T03:06:59;99295.09;;;23.82;44.18
18527;BME280;9393;42.158;24.748;2023-07-29T03:10:04;99306.66;;;23.99;43.70
18527;BME280;9393;42.158;24.748;2023-07-29T03:13:09;99307.34;;;23.83;44.34
18527;BME280;9393;42.158;24.748;2023-07-29T03:16:14;99309.75;;;23.96;44.33
18527;BME280;9393;42.158;24.748;2023-07-29T03:19:24;99316.94;;;24.07;43.67
18527;BME280;9393;42.158;24.748;2023-07-29T03:22:28;99310.09;;;24.11;43.62
18527;BME280;9393;42.158;24.748;2023-07-29T03:25:32;99304.44;;;23.96;43.74
18527;BME280;9393;42.158;24.748;2023-07-29T03:28:38;99318.00;;;24.06;43.89
18527;BME280;9393;42.158;24.748;2023-07-29T03:31:42;99312.91;;;24.17;43.42
18527;BME280;9393;42.158;24.748;2023-07-29T03:34:46;99315.91;;;24.20;43.44
18527;BME280;9393;42.158;24.748;2023-07-29T03:37:50;99324.47;;;24.22;43.50
18527;BME280;9393;42.158;24.748;2023-07-29T03:40:54;99329.31;;;24.37;43.25
18527;BME280;9393;42.158;24.748;2023-07-29T03:43:59;99332.50;;;24.50;43.07
18527;BME280;9393;42.158;24.748;2023-07-29T03:47:04;99336.72;;;24.75;42.27
18527;BME280;9393;42.158;24.748;2023-07-29T03:50:08;99330.84;;;24.61;42.82
18527;BME280;9393;42.158;24.748;2023-07-29T03:53:12;99330.09;;;24.77;42.47
18527;BME280;9393;42.158;24.748;2023-07-29T03:56:16;99343.75;;;24.92;42.43
18527;BME280;9393;42.158;24.748;2023-07-29T03:59:21;99338.81;;;25.01;42.79
18527;BME280;9393;42.158;24.748;2023-07-29T04:02:25;99344.41;;;24.99;43.07
18527;BME280;9393;42.158;24.748;2023-07-29T04:05:29;99342.59;;;25.33;41.99
18527;BME280;9393;42.158;24.748;2023-07-29T04:08:33;99349.22;;;25.47;41.71
18527;BME280;9393;42.158;24.748;2023-07-29T04:11:37;99352.84;;;25.41;41.98
18527;BME280;9393;42.158;24.748;2023-07-29T04:14:42;99350.44;;;25.40;41.60
18527;BME280;9393;42.158;24.748;2023-07-29T04:17:46;99353.47;;;24.98;42.95
18527;BME280;9393;42.158;24.748;2023-07-29T04:20:49;99355.28;;;25.43;42.00
18527;BME280;9393;42.158;24.748;2023-07-29T04:23:53;99359.75;;;24.92;43.52
18527;BME280;9393;42.158;24.748;2023-07-29T04:26:57;99357.31;;;25.36;42.04
18527;BME280;9393;42.158;24.748;2023-07-29T04:30:02;99356.44;;;25.63;41.76
18527;BME280;9393;42.158;24.748;2023-07-29T04:33:06;99359.78;;;25.54;42.04
18527;BME280;9393;42.158;24.748;2023-07-29T04:36:12;99364.38;;;25.75;41.09
18527;BME280;9393;42.158;24.748;2023-07-29T04:39:18;99367.16;;;25.19;41.96
18527;BME280;9393;42.158;24.748;2023-07-29T04:42:22;99368.94;;;25.58;41.16
18527;BME280;9393;42.158;24.748;2023-07-29T04:45:29;99360.00;;;25.86;41.24
18527;BME280;9393;42.158;24.748;2023-07-29T04:48:34;99359.53;;;24.82;43.30
18527;BME280;9393;42.158;24.748;2023-07-29T04:51:38;99360.47;;;25.99;41.49
18527;BME280;9393;42.158;24.748;2023-07-29T04:54:42;99368.91;;;25.91;41.31
18527;BME280;9393;42.158;24.748;2023-07-29T04:57:45;99364.66;;;26.50;40.36
18527;BME280;9393;42.158;24.748;2023-07-29T05:00:50;99355.13;;;26.59;40.19
18527;BME280;9393;42.158;24.748;2023-07-29T05:03:54;99364.53;;;26.40;40.15
18527;BME280;9393;42.158;24.748;2023-07-29T05:06:58;99365.13;;;26.69;39.51
18527;BME280;9393;42.158;24.748;2023-07-29T05:10:02;99379.72;;;27.05;38.70
18527;BME280;9393;42.158;24.748;2023-07-29T05:13:07;99383.25;;;27.10;39.34
18527;BME280;9393;42.158;24.748;2023-07-29T05:16:12;99376.03;;;27.11;38.58
18527;BME280;9393;42.158;24.748;2023-07-29T05:19:16;99376.50;;;27.03;39.04
18527;BME280;9393;42.158;24.748;2023-07-29T05:22:20;99379.56;;;27.43;38.74
18527;BME280;9393;42.158;24.748;2023-07-29T05:25:24;99377.00;;;26.78;39.95
18527;BME280;9393;42.158;24.748;2023-07-29T05:28:28;99379.16;;;27.30;39.06
18527;BME280;9393;42.158;24.748;2023-07-29T05:31:33;99380.66;;;27.79;37.93
18527;BME280;9393;42.158;24.748;2023-07-29T05:34:37;99377.66;;;27.71;38.10
18527;BME280;9393;42.158;24.748;2023-07-29T05:37:41;99374.72;;;28.09;37.61
18527;BME280;9393;42.158;24.748;2023-07-29T05:40:44;99392.59;;;28.03;37.04
18527;BME280;9393;42.158;24.748;2023-07-29T05:43:48;99393.66;;;27.97;36.75
18527;BME280;9393;42.158;24.748;2023-07-29T05:46:53;99402.78;;;28.43;36.46
18527;BME280;9393;42.158;24.748;2023-07-29T05:49:57;99402.03;;;28.53;36.20
18527;BME280;9393;42.158;24.748;2023-07-29T05:53:04;99398.91;;;28.76;35.86
18527;BME280;9393;42.158;24.748;2023-07-29T05:56:08;99397.19;;;28.55;36.17
18527;BME280;9393;42.158;24.748;2023-07-29T05:59:12;99390.13;;;28.91;35.95
18527;BME280;9393;42.158;24.748;2023-07-29T06:02:18;99394.75;;;29.16;35.26
18527;BME280;9393;42.158;24.748;2023-07-29T06:05:21;99392.38;;;29.29;35.75
18527;BME280;9393;42.158;24.748;2023-07-29T06:08:26;99391.59;;;29.44;35.01
18527;BME280;9393;42.158;24.748;2023-07-29T06:11:31;99384.84;;;29.87;34.24
18527;BME280;9393;42.158;24.748;2023-07-29T06:14:35;99390.50;;;29.40;35.18
18527;BME280;9393;42.158;24.748;2023-07-29T06:17:40;99391.31;;;29.71;34.06
18527;BME280;9393;42.158;24.748;2023-07-29T06:20:44;99391.03;;;29.87;34.26
18527;BME280;9393;42.158;24.748;2023-07-29T06:23:48;99384.03;;;29.66;35.04
18527;BME280;9393;42.158;24.748;2023-07-29T06:26:51;99392.88;;;30.12;33.93
18527;BME280;9393;42.158;24.748;2023-07-29T06:29:55;99392.09;;;29.86;34.08
18527;BME280;9393;42.158;24.748;2023-07-29T06:33:01;99389.31;;;30.37;33.52
18527;BME280;9393;42.158;24.748;2023-07-29T06:36:05;99380.28;;;29.87;33.93
18527;BME280;9393;42.158;24.748;2023-07-29T06:39:09;99384.56;;;30.08;33.80
18527;BME280;9393;42.158;24.748;2023-07-29T06:42:13;99375.84;;;30.47;33.05
18527;BME280;9393;42.158;24.748;2023-07-29T06:45:17;99379.38;;;30.37;33.58
18527;BME280;9393;42.158;24.748;2023-07-29T06:48:23;99384.50;;;30.29;33.76
18527;BME280;9393;42.158;24.748;2023-07-29T06:51:26;99379.63;;;30.46;33.06
18527;BME280;9393;42.158;24.748;2023-07-29T06:54:31;99383.78;;;30.77;33.11
18527;BME280;9393;42.158;24.748;2023-07-29T06:57:35;99385.75;;;31.16;32.98
18527;BME280;9393;42.158;24.748;2023-07-29T07:00:39;99384.53;;;31.32;32.80
18527;BME280;9393;42.158;24.748;2023-07-29T07:03:44;99384.69;;;31.12;32.37
18527;BME280;9393;42.158;24.748;2023-07-29T07:06:48;99384.94;;;31.54;32.24
18527;BME280;9393;42.158;24.748;2023-07-29T07:09:52;99370.47;;;31.74;31.58
18527;BME280;9393;42.158;24.748;2023-07-29T07:12:56;99373.03;;;31.60;32.17
18527;BME280;9393;42.158;24.748;2023-07-29T07:15:59;99366.66;;;31.51;32.60
18527;BME280;9393;42.158;24.748;2023-07-29T07:19:05;99367.75;;;31.79;31.86
18527;BME280;9393;42.158;24.748;2023-07-29T07:22:09;99373.44;;;32.30;31.14
18527;BME280;9393;42.158;24.748;2023-07-29T07:25:13;99366.56;;;32.14;30.93
18527;BME280;9393;42.158;24.748;2023-07-29T07:28:16;99364.56;;;32.24;30.92
18527;BME280;9393;42.158;24.748;2023-07-29T07:31:21;99353.84;;;32.19;30.71
18527;BME280;9393;42.158;24.748;2023-07-29T07:34:27;99350.31;;;31.66;31.63
18527;BME280;9393;42.158;24.748;2023-07-29T07:37:31;99352.06;;;32.33;30.47
18527;BME280;9393;42.158;24.748;2023-07-29T07:40:35;99344.19;;;32.79;30.26
18527;BME280;9393;42.158;24.748;2023-07-29T07:43:39;99345.50;;;33.00;29.61
18527;BME280;9393;42.158;24.748;2023-07-29T07:46:43;99342.56;;;31.88;30.71
18527;BME280;9393;42.158;24.748;2023-07-29T07:49:48;99339.63;;;32.37;30.51
18527;BME280;9393;42.158;24.748;2023-07-29T07:52:52;99336.03;;;32.84;29.66
18527;BME280;9393;42.158;24.748;2023-07-29T07:55:56;99341.06;;;33.10;29.27
18527;BME280;9393;42.158;24.748;2023-07-29T07:59:00;99332.06;;;33.14;29.30
18527;BME280;9393;42.158;24.748;2023-07-29T08:02:05;99326.22;;;33.58;29.10
18527;BME280;9393;42.158;24.748;2023-07-29T08:05:10;99315.28;;;33.49;29.47
18527;BME280;9393;42.158;24.748;2023-07-29T08:08:14;99309.16;;;33.44;29.17
18527;BME280;9393;42.158;24.748;2023-07-29T08:11:18;99306.41;;;33.76;29.22
18527;BME280;9393;42.158;24.748;2023-07-29T08:14:22;99306.94;;;33.78;28.68
18527;BME280;9393;42.158;24.748;2023-07-29T08:17:26;99306.88;;;33.51;29.46
18527;BME280;9393;42.158;24.748;2023-07-29T08:20:31;99311.03;;;33.76;29.21
18527;BME280;9393;42.158;24.748;2023-07-29T08:23:36;99303.94;;;34.07;28.83
18527;BME280;9393;42.158;24.748;2023-07-29T08:26:40;99305.06;;;33.46;29.42
18527;BME280;9393;42.158;24.748;2023-07-29T08:29:44;99303.81;;;33.39;29.45
18527;BME280;9393;42.158;24.748;2023-07-29T08:32:48;99295.94;;;32.91;30.07
18527;BME280;9393;42.158;24.748;2023-07-29T08:35:54;99293.06;;;33.01;30.32
18527;BME280;9393;42.158;24.748;2023-07-29T08:38:58;99287.47;;;33.63;29.57
18527;BME280;9393;42.158;24.748;2023-07-29T08:42:03;99284.75;;;33.17;29.92
18527;BME280;9393;42.158;24.748;2023-07-29T08:45:09;99278.84;;;33.61;29.62
18527;BME280;9393;42.158;24.748;2023-07-29T08:48:17;99271.78;;;34.06;29.24
18527;BME280;9393;42.158;24.748;2023-07-29T08:51:25;99273.25;;;34.12;28.92
18527;BME280;9393;42.158;24.748;2023-07-29T08:54:30;99267.19;;;34.56;28.34
18527;BME280;9393;42.158;24.748;2023-07-29T08:57:35;99264.41;;;35.05;27.92
18527;BME280;9393;42.158;24.748;2023-07-29T09:00:39;99274.50;;;34.91;27.38
18527;BME280;9393;42.158;24.748;2023-07-29T09:03:44;99264.97;;;34.93;27.67
18527;BME280;9393;42.158;24.748;2023-07-29T09:06:50;99261.91;;;34.50;27.48
18527;BME280;9393;42.158;24.748;2023-07-29T09:09:54;99264.66;;;34.59;27.79
18527;BME280;9393;42.158;24.748;2023-07-29T09:12:58;99260.34;;;34.22;27.83
18527;BME280;9393;42.158;24.748;2023-07-29T09:16:04;99256.56;;;33.23;28.49
18527;BME280;9393;42.158;24.748;2023-07-29T09:19:08;99260.19;;;33.59;28.12
18527;BME280;9393;42.158;24.748;2023-07-29T09:22:19;99250.03;;;33.70;27.88
18527;BME280;9393;42.158;24.748;2023-07-29T09:25:24;99241.69;;;34.21;27.66
18527;BME280;9393;42.158;24.748;2023-07-29T09:28:32;99239.47;;;34.72;26.91
18527;BME280;9393;42.158;24.748;2023-07-29T09:31:40;99236.50;;;35.05;26.62
18527;BME280;9393;42.158;24.748;2023-07-29T09:34:44;99233.25;;;35.16;26.00
18527;BME280;9393;42.158;24.748;2023-07-29T09:37:50;99221.00;;;35.19;25.99
18527;BME280;9393;42.158;24.748;2023-07-29T09:40:55;99232.75;;;35.14;25.27
18527;BME280;9393;42.158;24.748;2023-07-29T09:44:01;99224.47;;;34.88;25.31
18527;BME280;9393;42.158;24.748;2023-07-29T09:47:05;99219.34;;;35.40;24.48
18527;BME280;9393;42.158;24.748;2023-07-29T09:50:09;99209.75;;;35.73;23.79
18527;BME280;9393;42.158;24.748;2023-07-29T09:53:15;99226.22;;;35.77;23.86
18527;BME280;9393;42.158;24.748;2023-07-29T09:56:26;99223.91;;;35.62;23.55
18527;BME280;9393;42.158;24.748;2023-07-29T09:59:33;99218.06;;;35.37;24.03
18527;BME280;9393;42.158;24.748;2023-07-29T10:02:39;99220.78;;;35.77;24.23
18527;BME280;9393;42.158;24.748;2023-07-29T10:05:44;99207.69;;;35.70;23.56
18527;BME280;9393;42.158;24.748;2023-07-29T10:08:52;99203.38;;;35.38;24.04
18527;BME280;9393;42.158;24.748;2023-07-29T10:11:57;99206.13;;;34.85;24.60
18527;BME280;9393;42.158;24.748;2023-07-29T10:15:04;99198.94;;;35.12;25.01
18527;BME280;9393;42.158;24.748;2023-07-29T10:18:08;99203.19;;;35.04;24.91
18527;BME280;9393;42.158;24.748;2023-07-29T10:21:13;99196.84;;;35.39;24.56
18527;BME280;9393;42.158;24.748;2023-07-29T10:24:23;99194.59;;;35.72;24.12
18527;BME280;9393;42.158;24.748;2023-07-29T10:27:35;99201.72;;;36.08;23.61
18527;BME280;9393;42.158;24.748;2023-07-29T10:30:42;99193.09;;;36.14;23.69
18527;BME280;9393;42.158;24.748;2023-07-29T10:33:46;99186.78;;;35.79;24.17
18527;BME280;9393;42.158;24.748;2023-07-29T10:36:51;99193.22;;;36.01;23.96
18527;BME280;9393;42.158;24.748;2023-07-29T10:39:57;99189.00;;;35.29;23.64
18527;BME280;9393;42.158;24.748;2023-07-29T10:43:01;99174.63;;;35.60;23.13
18527;BME280;9393;42.158;24.748;2023-07-29T10:46:16;99167.16;;;35.34;23.66
18527;BME280;9393;42.158;24.748;2023-07-29T10:49:23;99176.66;;;36.19;23.75
18527;BME280;9393;42.158;24.748;2023-07-29T10:52:39;99170.41;;;36.44;23.02
18527;BME280;9393;42.158;24.748;2023-07-29T10:55:45;99157.50;;;36.67;22.37
18527;BME280;9393;42.158;24.748;2023-07-29T10:58:50;99162.13;;;36.67;22.16
18527;BME280;9393;42.158;24.748;2023-07-29T11:01:58;99154.56;;;36.04;22.55
18527;BME280;9393;42.158;24.748;2023-07-29T11:05:05;99148.22;;;36.00;23.00
18527;BME280;9393;42.158;24.748;2023-07-29T11:08:26;99153.88;;;35.64;22.86
18527;BME280;9393;42.158;24.748;2023-07-29T11:11:32;99145.69;;;36.12;23.20
18527;BME280;9393;42.158;24.748;2023-07-29T11:14:36;99146.31;;;36.60;22.22
18527;BME280;9393;42.158;24.748;2023-07-29T11:17:42;99139.63;;;36.40;22.12
18527;BME280;9393;42.158;24.748;2023-07-29T11:20:46;99139.19;;;36.93;22.20
18527;BME280;9393;42.158;24.748;2023-07-29T11:23:53;99134.34;;;36.35;21.96
18527;BME280;9393;42.158;24.748;2023-07-29T11:26:58;99122.63;;;36.52;22.04
18527;BME280;9393;42.158;24.748;2023-07-29T11:30:04;99122.13;;;36.76;22.16
18527;BME280;9393;42.158;24.748;2023-07-29T11:33:10;99112.44;;;36.58;22.20
18527;BME280;9393;42.158;24.748;2023-07-29T11:36:18;99115.75;;;36.80;22.35
18527;BME280;9393;42.158;24.748;2023-07-29T11:39:22;99124.53;;;37.24;22.05
18527;BME280;9393;42.158;24.748;2023-07-29T11:42:28;99111.16;;;37.19;21.67
18527;BME280;9393;42.158;24.748;2023-07-29T11:45:33;99108.53;;;36.84;22.06
18527;BME280;9393;42.158;24.748;2023-07-29T11:48:54;99104.22;;;36.83;21.87
18527;BME280;9393;42.158;24.748;2023-07-29T11:51:58;99101.97;;;37.03;21.90
18527;BME280;9393;42.158;24.748;2023-07-29T11:55:03;99093.97;;;36.89;22.23
18527;BME280;9393;42.158;24.748;2023-07-29T11:58:09;99088.94;;;36.62;22.07
18527;BME280;9393;42.158;24.748;2023-07-29T12:01:14;99090.38;;;36.42;22.20
18527;BME280;9393;42.158;24.748;2023-07-29T12:04:18;99090.53;;;36.45;21.63
18527;BME280;9393;42.158;24.748;2023-07-29T12:07:22;99082.91;;;36.30;22.13
18527;BME280;9393;42.158;24.748;2023-07-29T12:10:27;99074.78;;;36.30;21.90
18527;BME280;9393;42.158;24.748;2023-07-29T12:13:37;99074.41;;;37.13;21.90
18527;BME280;9393;42.158;24.748;2023-07-29T12:16:41;99074.56;;;37.08;21.37
18527;BME280;9393;42.158;24.748;2023-07-29T12:19:46;99076.63;;;36.64;21.75
18527;BME280;9393;42.158;24.748;2023-07-29T12:22:54;99072.41;;;36.20;21.64
18527;BME280;9393;42.158;24.748;2023-07-29T12:25:58;99070.13;;;36.14;22.12
18527;BME280;9393;42.158;24.748;2023-07-29T12:29:12;99061.81;;;36.36;21.55
18527;BME280;9393;42.158;24.748;2023-07-29T12:32:16;99057.56;;;36.73;21.49
18527;BME280;9393;42.158;24.748;2023-07-29T12:35:20;99052.81;;;37.08;21.18
18527;BME280;9393;42.158;24.748;2023-07-29T12:38:26;99052.16;;;36.73;21.17
18527;BME280;9393;42.158;24.748;2023-07-29T12:41:30;99048.03;;;36.50;21.17
18527;BME280;9393;42.158;24.748;2023-07-29T12:44:37;99039.72;;;36.72;20.82
18527;BME280;9393;42.158;24.748;2023-07-29T12:47:41;99039.16;;;36.23;20.93
18527;BME280;9393;42.158;24.748;2023-07-29T12:50:45;99040.56;;;36.38;20.71
18527;BME280;9393;42.158;24.748;2023-07-29T12:53:49;99035.09;;;36.55;21.57
18527;BME280;9393;42.158;24.748;2023-07-29T12:56:53;99027.50;;;36.23;21.24
18527;BME280;9393;42.158;24.748;2023-07-29T12:59:58;99040.44;;;35.91;21.26
18527;BME280;9393;42.158;24.748;2023-07-29T13:03:02;99043.63;;;35.76;21.03
18527;BME280;9393;42.158;24.748;2023-07-29T13:06:08;99038.16;;;35.51;21.07
18527;BME280;9393;42.158;24.748;2023-07-29T13:09:12;99042.97;;;35.62;21.59
18527;BME280;9393;42.158;24.748;2023-07-29T13:12:16;99045.88;;;36.09;21.05
18527;BME280;9393;42.158;24.748;2023-07-29T13:15:22;99048.41;;;35.79;21.37
18527;BME280;9393;42.158;24.748;2023-07-29T13:18:26;99044.59;;;35.89;21.55
18527;BME280;9393;42.158;24.748;2023-07-29T13:21:30;99042.00;;;36.35;21.16
18527;BME280;9393;42.158;24.748;2023-07-29T13:24:33;99042.75;;;36.62;21.46
18527;BME280;9393;42.158;24.748;2023-07-29T13:27:37;99042.22;;;36.77;21.00
18527;BME280;9393;42.158;24.748;2023-07-29T13:30:42;99033.97;;;36.65;20.86
18527;BME280;9393;42.158;24.748;2023-07-29T13:33:46;99031.34;;;36.77;21.68
18527;BME280;9393;42.158;24.748;2023-07-29T13:36:50;99025.19;;;36.59;21.24
18527;BME280;9393;42.158;24.748;2023-07-29T13:39:54;99026.72;;;36.77;20.95
18527;BME280;9393;42.158;24.748;2023-07-29T13:43:27;99018.13;;;36.75;20.89
18527;BME280;9393;42.158;24.748;2023-07-29T13:46:33;99018.19;;;36.87;21.03
18527;BME280;9393;42.158;24.748;2023-07-29T13:49:37;99018.44;;;36.65;21.00
18527;BME280;9393;42.158;24.748;2023-07-29T13:52:41;99013.59;;;36.79;20.72
18527;BME280;9393;42.158;24.748;2023-07-29T13:55:45;99013.78;;;37.12;20.85
18527;BME280;9393;42.158;24.748;2023-07-29T13:58:49;99020.44;;;36.39;21.83
18527;BME280;9393;42.158;24.748;2023-07-29T14:01:54;99017.44;;;36.23;21.38
18527;BME280;9393;42.158;24.748;2023-07-29T14:04:58;99013.97;;;36.69;21.14
18527;BME280;9393;42.158;24.748;2023-07-29T14:08:02;99017.19;;;36.54;21.42
18527;BME280;9393;42.158;24.748;2023-07-29T14:11:06;99010.72;;;37.14;21.21
18527;BME280;9393;42.158;24.748;2023-07-29T14:14:10;99004.09;;;37.03;20.66
18527;BME280;9393;42.158;24.748;2023-07-29T14:17:15;99002.19;;;37.44;20.75
18527;BME280;9393;42.158;24.748;2023-07-29T14:20:20;98999.13;;;37.05;20.86
18527;BME280;9393;42.158;24.748;2023-07-29T14:23:24;98995.84;;;37.20;20.95
18527;BME280;9393;42.158;24.748;2023-07-29T14:26:28;98981.34;;;37.07;20.17
18527;BME280;9393;42.158;24.748;2023-07-29T14:29:32;98991.16;;;37.20;20.82
18527;BME280;9393;42.158;24.748;2023-07-29T14:32:37;98978.53;;;36.48;20.36
18527;BME280;9393;42.158;24.748;2023-07-29T14:35:41;98985.38;;;36.72;20.77
18527;BME280;9393;42.158;24.748;2023-07-29T14:38:47;98982.91;;;36.32;20.90
18527;BME280;9393;42.158;24.748;2023-07-29T14:41:51;98978.50;;;36.11;21.50
18527;BME280;9393;42.158;24.748;2023-07-29T14:44:55;98978.03;;;35.66;22.09
18527;BME280;9393;42.158;24.748;2023-07-29T14:48:01;98985.66;;;35.55;22.67
18527;BME280;9393;42.158;24.748;2023-07-29T14:51:07;98981.81;;;35.22;22.18
18527;BME280;9393;42.158;24.748;2023-07-29T14:54:11;98971.00;;;35.39;22.06
18527;BME280;9393;42.158;24.748;2023-07-29T14:57:17;98974.69;;;35.77;22.50
18527;BME280;9393;42.158;24.748;2023-07-29T15:00:21;98964.44;;;36.17;22.13
18527;BME280;9393;42.158;24.748;2023-07-29T15:03:26;98970.53;;;35.88;21.33
18527;BME280;9393;42.158;24.748;2023-07-29T15:06:30;98971.81;;;35.91;21.87
18527;BME280;9393;42.158;24.748;2023-07-29T15:09:34;98974.72;;;35.60;22.12
18527;BME280;9393;42.158;24.748;2023-07-29T15:12:38;98973.88;;;35.51;22.11
18527;BME280;9393;42.158;24.748;2023-07-29T15:15:43;98970.41;;;35.68;22.81
18527;BME280;9393;42.158;24.748;2023-07-29T15:18:48;98974.69;;;35.43;22.52
18527;BME280;9393;42.158;24.748;2023-07-29T15:21:53;98974.03;;;35.20;22.19
18527;BME280;9393;42.158;24.748;2023-07-29T15:24:56;98972.84;;;35.04;22.49
18527;BME280;9393;42.158;24.748;2023-07-29T15:28:25;98972.19;;;35.07;22.83
18527;BME280;9393;42.158;24.748;2023-07-29T15:31:29;98971.72;;;35.05;22.50
18527;BME280;9393;42.158;24.748;2023-07-29T15:34:34;98975.03;;;34.93;22.30
18527;BME280;9393;42.158;24.748;2023-07-29T15:37:39;98972.50;;;34.88;22.59
18527;BME280;9393;42.158;24.748;2023-07-29T15:40:43;98984.72;;;34.77;23.02
18527;BME280;9393;42.158;24.748;2023-07-29T15:43:47;98979.47;;;34.81;22.41
18527;BME280;9393;42.158;24.748;2023-07-29T15:46:51;98980.38;;;34.37;23.18
18527;BME280;9393;42.158;24.748;2023-07-29T15:49:56;98981.09;;;34.20;23.54
18527;BME280;9393;42.158;24.748;2023-07-29T15:53:00;98992.59;;;34.26;23.64
18527;BME280;9393;42.158;24.748;2023-07-29T15:56:05;98990.03;;;34.07;23.73
18527;BME280;9393;42.158;24.748;2023-07-29T15:59:10;98995.22;;;34.17;23.72
18527;BME280;9393;42.158;24.748;2023-07-29T16:02:14;99001.75;;;34.16;23.89
18527;BME280;9393;42.158;24.748;2023-07-29T16:05:20;98995.88;;;34.00;24.00
18527;BME280;9393;42.158;24.748;2023-07-29T16:08:24;98997.69;;;34.05;23.86
18527;BME280;9393;42.158;24.748;2023-07-29T16:11:28;98996.88;;;34.05;23.78
18527;BME280;9393;42.158;24.748;2023-07-29T16:14:32;98991.81;;;34.12;24.03
18527;BME280;9393;42.158;24.748;2023-07-29T16:17:35;99000.94;;;33.93;24.41
18527;BME280;9393;42.158;24.748;2023-07-29T16:20:41;98997.75;;;33.91;24.35